Time;durP1;ratioP1;P1;durP2;ratioP2;P2;SDS_P1;SDS_P2;PMS_P1;PMS_P2;Temp;Humidity;BMP_temperature;BMP_pressure;BME280_temperature;BME280_humidity;BME280_pressure;Samples;Min_cycle;Max_cycle;Signal;HPM_P1;HPM_P2
2023/04/16 00:01:20;;;;;;;3.73;1.00;;;;;;;15.55;47.70;98555.56;6129908;23;20167;-84
2023/04/16 00:03:47;;;;;;;3.63;1.17;;;;;;;15.52;47.65;98554.97;6129644;23;20165;-83
2023/04/16 00:06:14;;;;;;;4.87;0.93;;;;;;;15.61;47.72;98556.88;6129588;23;20198;-84
2023/04/16 00:08:42;;;;;;;2.87;0.90;;;;;;;15.38;47.93;98554.25;6154856;23;20237;-84
2023/04/16 00:11:09;;;;;;;6.13;1.10;;;;;;;15.33;48.58;98551.16;6129675;23;20154;-85
2023/04/16 00:13:35;;;;;;;5.90;1.00;;;;;;;15.46;48.17;98555.50;6129656;23;20264;-84
2023/04/16 00:16:05;;;;;;;1.97;0.93;;;;;;;15.44;48.37;98552.06;6155336;23;20159;-85
2023/04/16 00:18:32;;;;;;;6.10;1.13;;;;;;;15.42;48.63;98548.72;6129704;23;20185;-84
2023/04/16 00:21:01;;;;;;;4.77;0.80;;;;;;;15.44;48.82;98549.44;6155521;23;20161;-85
2023/04/16 00:23:27;;;;;;;1.60;0.70;;;;;;;15.50;48.89;98551.63;6129971;23;20190;-85
2023/04/16 00:25:56;;;;;;;5.90;1.17;;;;;;;15.44;49.10;98550.28;6155561;23;20147;-85
2023/04/16 00:28:22;;;;;;;4.97;1.20;;;;;;;15.60;49.14;98547.25;6129694;23;20182;-86
2023/04/16 00:30:49;;;;;;;6.23;1.17;;;;;;;15.75;48.97;98549.47;6129651;23;20574;-85
2023/04/16 00:33:17;;;;;;;10.40;1.77;;;;;;;15.82;48.73;98545.38;6155695;23;20155;-85
2023/04/16 00:35:47;;;;;;;4.13;0.90;;;;;;;15.89;nan;98540.41;6155595;23;20177;-85
2023/04/16 00:38:17;;;;;;;3.33;0.80;;;;;;;15.82;49.44;98547.16;6155098;23;20230;-85
2023/04/16 00:40:44;;;;;;;5.30;0.90;;;;;;;15.71;49.72;98539.28;6155309;23;20194;-85
2023/04/16 00:43:10;;;;;;;8.17;1.30;;;;;;;15.73;50.44;98537.34;6154188;23;20147;-85
2023/04/16 00:45:37;;;;;;;6.40;1.50;;;;;;;15.88;49.71;98534.28;6155126;23;20174;-85
2023/04/16 00:48:07;;;;;;;4.90;1.57;;;;;;;16.05;49.43;98535.50;6129643;23;20214;-85
2023/04/16 00:50:34;;;;;;;6.97;1.50;;;;;;;16.12;49.21;98541.09;6155073;23;20147;-85
2023/04/16 00:53:06;;;;;;;5.10;1.10;;;;;;;16.12;49.23;98539.31;6129300;23;20155;-85
2023/04/16 00:55:33;;;;;;;4.17;1.20;;;;;;;16.17;49.37;98531.81;6129390;23;20636;-85
2023/04/16 00:58:00;;;;;;;4.30;1.30;;;;;;;16.23;49.37;98531.31;6154907;23;20143;-85
2023/04/16 01:00:27;;;;;;;6.60;0.70;;;;;;;16.24;49.29;98521.56;6129262;23;20719;-85
2023/04/16 01:02:54;;;;;;;1.83;0.80;;;;;;;16.28;49.43;98517.69;6129020;23;20155;-85
2023/04/16 01:05:21;;;;;;;3.87;0.73;;;;;;;16.30;49.52;98524.50;6155163;23;20151;-84
2023/04/16 01:07:47;;;;;;;3.23;0.90;;;;;;;16.37;49.42;98522.19;6136347;23;20203;-84
2023/04/16 01:10:17;;;;;;;4.97;1.33;;;;;;;16.32;49.31;98524.41;6099889;23;20164;-84
2023/04/16 01:12:43;;;;;;;4.13;1.10;;;;;;;16.34;49.55;98525.94;6099444;23;20604;-86
2023/04/16 01:15:10;;;;;;;8.43;1.33;;;;;;;16.36;49.48;98531.94;6099962;23;20554;-84
2023/04/16 01:17:37;;;;;;;3.73;1.33;;;;;;;16.30;49.90;98519.22;6100077;23;20508;-84
2023/04/16 01:20:04;;;;;;;8.63;1.73;;;;;;;16.31;50.17;98518.28;6125484;23;20151;-84
2023/04/16 01:22:31;;;;;;;6.10;1.37;;;;;;;16.23;50.60;98517.25;6125429;23;20187;-85
2023/04/16 01:24:58;;;;;;;9.23;1.20;;;;;;;16.20;50.56;98515.69;6100140;23;20183;-84
2023/04/16 01:27:24;;;;;;;9.67;1.13;;;;;;;16.14;51.10;98516.22;6125412;23;20219;-84
2023/04/16 01:29:51;;;;;;;8.73;1.47;;;;;;;16.09;51.53;98526.34;6099853;23;20491;-84
2023/04/16 01:32:17;;;;;;;3.63;1.30;;;;;;;16.03;51.89;98513.66;6125570;23;20163;-84
2023/04/16 01:34:44;;;;;;;11.27;1.67;;;;;;;16.08;52.21;98510.63;6099918;23;20155;-84
2023/04/16 01:37:11;;;;;;;5.80;1.07;;;;;;;16.14;52.09;98505.63;6099970;23;20170;-84
2023/04/16 01:39:38;;;;;;;6.60;1.13;;;;;;;16.20;52.14;98510.41;6099932;23;20163;-85
2023/04/16 01:42:04;;;;;;;3.27;1.07;;;;;;;16.25;52.14;98513.50;6099563;23;20156;-85
2023/04/16 01:44:31;;;;;;;8.53;1.57;;;;;;;16.29;52.01;98512.28;6125405;23;20283;-85
2023/04/16 01:46:58;;;;;;;3.53;0.90;;;;;;;16.30;52.05;98511.28;6125618;23;20152;-84
2023/04/16 01:49:25;;;;;;;8.53;1.40;;;;;;;16.26;51.83;98509.91;6100130;23;20156;-84
2023/04/16 01:51:52;;;;;;;5.80;1.33;;;;;;;16.26;52.06;98514.34;6101561;23;20155;-84
2023/04/16 01:54:19;;;;;;;7.97;1.53;;;;;;;16.30;52.15;98516.59;6127326;23;20171;-85
2023/04/16 01:56:45;;;;;;;1.90;0.83;;;;;;;16.29;51.86;98514.94;6126942;23;20162;-84
2023/04/16 01:59:12;;;;;;;7.90;1.00;;;;;;;16.36;51.72;98518.72;6127026;23;20166;-84
2023/04/16 02:01:42;;;;;;;1.47;0.70;;;;;;;16.36;51.90;98513.41;6127431;23;20235;-86
2023/04/16 02:04:09;;;;;;;5.17;1.57;;;;;;;16.31;51.82;98517.44;6127043;23;20499;-85
2023/04/16 02:06:36;;;;;;;7.40;1.40;;;;;;;16.26;51.50;98515.19;6101459;23;20196;-85
2023/04/16 02:09:02;;;;;;;3.27;1.10;;;;;;;16.27;51.37;98514.19;6101247;23;20689;-85
2023/04/16 02:11:29;;;;;;;2.57;1.20;;;;;;;16.11;52.34;98511.22;6101187;23;20182;-85
2023/04/16 02:13:56;;;;;;;8.43;1.93;;;;;;;16.12;52.26;98512.03;6101293;23;20168;-86
2023/04/16 02:16:23;;;;;;;8.73;1.60;;;;;;;16.16;51.70;98503.72;6100877;23;20167;-85
2023/04/16 02:18:49;;;;;;;8.07;1.37;;;;;;;16.08;51.77;98511.47;6126927;23;20155;-86
2023/04/16 02:21:15;;;;;;;6.77;2.00;;;;;;;16.00;52.42;98513.91;6127108;23;20555;-85
2023/04/16 02:23:41;;;;;;;3.43;1.27;;;;;;;15.93;52.45;98510.94;6101193;23;20246;-85
2023/04/16 02:26:08;;;;;;;6.23;1.80;;;;;;;15.84;52.91;98511.72;6101584;23;20551;-85
2023/04/16 02:28:34;;;;;;;6.70;1.27;;;;;;;15.72;54.04;98510.09;6126561;23;20187;-85
2023/04/16 02:31:01;;;;;;;4.87;1.70;;;;;;;15.54;54.61;98514.25;6101228;23;20526;-85
2023/04/16 02:33:28;;;;;;;4.70;1.33;;;;;;;15.51;55.03;98506.63;6126898;23;20163;-86
2023/04/16 02:35:55;;;;;;;6.70;1.33;;;;;;;15.54;55.05;98508.16;6126789;23;20160;-85
2023/04/16 02:38:21;;;;;;;6.07;2.13;;;;;;;15.62;54.92;98510.97;6101214;23;20162;-85
2023/04/16 02:40:48;;;;;;;4.13;1.30;;;;;;;15.67;54.98;98501.72;6101049;23;20182;-86
2023/04/16 02:43:14;;;;;;;3.83;1.47;;;;;;;15.68;55.25;98499.91;6100623;23;20154;-85
2023/04/16 02:45:40;;;;;;;13.57;1.60;;;;;;;15.52;56.07;98502.13;6101404;23;20187;-86
2023/04/16 02:48:09;;;;;;;4.07;1.53;;;;;;;15.64;55.63;98498.50;6126206;23;20265;-86
2023/04/16 02:50:35;;;;;;;4.00;1.27;;;;;;;15.66;55.72;98501.84;6126984;23;20155;-86
2023/04/16 02:53:03;;;;;;;4.80;1.30;;;;;;;15.63;56.03;98499.47;6101050;23;20221;-85
2023/04/16 02:55:30;;;;;;;4.97;1.13;;;;;;;15.56;56.66;98503.59;6100912;23;20157;-85
2023/04/16 02:57:56;;;;;;;9.83;1.60;;;;;;;15.55;57.09;98501.88;6126761;23;20575;-86
2023/04/16 03:00:23;;;;;;;5.87;1.10;;;;;;;15.42;57.79;98503.84;6100498;23;20154;-86
2023/04/16 03:02:50;;;;;;;4.13;1.67;;;;;;;15.50;57.69;98499.63;6101003;23;20157;-85
2023/04/16 03:05:17;;;;;;;15.37;2.10;;;;;;;15.50;57.81;98502.28;6126265;23;20155;-85
2023/04/16 03:07:43;;;;;;;6.70;1.73;;;;;;;15.48;58.24;98511.28;6110783;23;20288;-85
2023/04/16 03:10:13;;;;;;;4.70;1.23;;;;;;;15.44;58.94;98509.81;6125919;23;20154;-85
2023/04/16 03:12:40;;;;;;;12.83;1.60;;;;;;;15.49;58.52;98523.56;6126289;23;20215;-85
2023/04/16 03:15:06;;;;;;;7.67;1.60;;;;;;;15.56;58.29;98525.56;6125050;23;20493;-85
2023/04/16 03:17:33;;;;;;;5.70;1.70;;;;;;;15.67;57.94;98524.66;6125407;23;20185;-85
2023/04/16 03:20:00;;;;;;;6.20;1.47;;;;;;;15.60;58.35;98524.31;6126085;23;20219;-85
2023/04/16 03:22:27;;;;;;;4.00;1.47;;;;;;;15.64;57.89;98525.75;6125405;23;20158;-85
2023/04/16 03:24:53;;;;;;;8.83;1.93;;;;;;;15.50;59.06;98535.78;6125057;23;20159;-85
2023/04/16 03:27:23;;;;;;;6.40;1.47;;;;;;;15.62;58.92;98530.31;6124795;23;20184;-85
2023/04/16 03:29:50;;;;;;;5.97;1.70;;;;;;;15.66;58.46;98528.28;6125052;23;20979;-85
2023/04/16 03:32:17;;;;;;;7.90;1.50;;;;;;;15.65;58.79;98529.22;6125112;23;20195;-85
2023/04/16 03:34:44;;;;;;;4.97;2.00;;;;;;;15.49;59.60;98539.41;6126180;23;20163;-85
2023/04/16 03:37:10;;;;;;;3.57;1.23;;;;;;;15.51;59.72;98534.81;6125110;23;20239;-84
2023/04/16 03:39:37;;;;;;;4.33;1.53;;;;;;;15.50;60.13;98535.78;6125995;23;20224;-84
2023/04/16 03:42:04;;;;;;;4.07;1.30;;;;;;;15.54;60.15;98538.03;6124989;23;20157;-85
2023/04/16 03:44:30;;;;;;;5.87;1.30;;;;;;;15.60;59.59;98540.19;6125999;23;20149;-86
2023/04/16 03:46:57;;;;;;;1.93;0.80;;;;;;;15.53;60.58;98544.28;6126254;23;20187;-85
2023/04/16 03:49:24;;;;;;;4.93;1.30;;;;;;;15.47;60.82;98541.31;6124787;23;20266;-86
2023/04/16 03:51:54;;;;;;;4.20;1.30;;;;;;;15.55;60.95;98546.78;6125798;23;20161;-86
2023/04/16 03:54:21;;;;;;;9.33;1.83;;;;;;;15.59;60.63;98535.84;6124742;23;20155;-86
2023/04/16 03:56:47;;;;;;;9.37;1.40;;;;;;;15.64;60.56;98543.41;6126034;23;20545;-86
2023/04/16 03:59:14;;;;;;;2.87;1.30;;;;;;;15.68;60.67;98545.66;6124634;23;20165;-86
2023/04/16 04:01:41;;;;;;;6.10;1.63;;;;;;;15.80;60.22;98543.81;6124742;23;20168;-86
2023/04/16 04:04:11;;;;;;;5.20;1.40;;;;;;;15.91;59.76;98541.09;6126225;23;20221;-87
2023/04/16 04:06:37;;;;;;;9.97;1.70;;;;;;;15.97;59.52;98540.59;6127593;23;20189;-87
2023/04/16 04:09:04;;;;;;;4.90;1.57;;;;;;;15.96;59.49;98542.41;6100076;23;20187;-87
2023/04/16 04:11:30;;;;;;;7.90;1.97;;;;;;;15.94;59.67;98546.97;6125762;23;20155;-87
2023/04/16 04:13:57;;;;;;;4.77;1.80;;;;;;;15.94;59.99;98546.13;6125648;23;20153;-87
2023/04/16 04:16:27;;;;;;;4.70;1.20;;;;;;;15.97;60.72;98548.53;6100252;23;20177;-87
2023/04/16 04:18:54;;;;;;;8.23;2.90;;;;;;;16.05;60.43;98553.16;6100344;23;20495;-87
2023/04/16 04:21:21;;;;;;;5.40;2.03;;;;;;;16.11;60.18;98548.22;6100142;23;20531;-87
2023/04/16 04:23:48;;;;;;;9.37;2.20;;;;;;;16.11;60.47;98558.78;6125705;23;20151;-87
2023/04/16 04:26:13;;;;;;;6.10;2.50;;;;;;;16.14;60.83;98566.44;6125440;23;20154;-87
2023/04/16 04:28:40;;;;;;;5.27;2.20;;;;;;;16.18;61.42;98564.38;6125938;23;20244;-87
2023/04/16 04:31:06;;;;;;;13.67;4.27;;;;;;;16.19;61.43;98563.44;6100428;23;20534;-86
2023/04/16 04:33:33;;;;;;;12.30;3.30;;;;;;;16.22;61.74;98565.81;6099707;23;20159;-86
2023/04/16 04:36:00;;;;;;;9.87;3.53;;;;;;;16.31;61.58;98575.59;6126189;23;20216;-87
2023/04/16 04:38:27;;;;;;;10.87;2.27;;;;;;;16.37;60.97;98578.59;6100312;23;20150;-86
2023/04/16 04:40:53;;;;;;;7.33;1.97;;;;;;;16.44;60.33;98570.94;6100130;23;20214;-86
2023/04/16 04:43:20;;;;;;;10.33;1.90;;;;;;;16.50;59.91;98576.56;6125449;23;20225;-87
2023/04/16 04:45:47;;;;;;;9.10;3.00;;;;;;;16.57;59.91;98583.03;6125770;23;20503;-87
2023/04/16 04:48:15;;;;;;;9.73;2.90;;;;;;;16.62;59.55;98584.44;6125918;23;20267;-86
2023/04/16 04:50:44;;;;;;;10.90;2.93;;;;;;;16.67;59.51;98592.81;6125371;23;20148;-87
2023/04/16 04:53:09;;;;;;;9.53;2.43;;;;;;;16.73;59.48;98594.94;6125357;23;20233;-87
2023/04/16 04:55:37;;;;;;;4.37;2.07;;;;;;;16.78;58.90;98595.38;6100086;23;20183;-87
2023/04/16 04:58:05;;;;;;;7.90;2.20;;;;;;;16.81;58.11;98595.13;6100139;23;20159;-87
2023/04/16 05:00:32;;;;;;;7.00;2.03;;;;;;;16.79;58.17;98597.91;6099755;23;20543;-87
2023/04/16 05:03:05;;;;;;;10.33;3.00;;;;;;;16.78;59.27;98600.69;6099929;23;20642;-87
2023/04/16 05:05:32;;;;;;;52.33;23.77;;;;;;;16.80;59.62;98599.56;6125773;23;20148;-87
2023/04/16 05:07:58;;;;;;;12.43;5.10;;;;;;;16.77;60.14;98593.72;6116859;23;20198;-88
2023/04/16 05:10:25;;;;;;;9.17;2.70;;;;;;;16.72;61.48;98595.94;6128989;23;20177;-88
2023/04/16 05:12:52;;;;;;;6.07;2.00;;;;;;;16.67;62.29;98600.75;6154688;23;20227;-87
2023/04/16 05:15:19;;;;;;;4.23;1.70;;;;;;;16.49;63.92;98593.41;6129257;23;20155;-87
2023/04/16 05:17:45;;;;;;;8.80;1.93;;;;;;;16.38;65.27;98600.56;6155193;23;20177;-86
2023/04/16 05:20:12;;;;;;;5.83;1.93;;;;;;;16.40;65.47;98601.28;6129393;23;20163;-86
2023/04/16 05:22:39;;;;;;;6.43;1.90;;;;;;;16.48;65.02;98590.91;6128989;23;20170;-86
2023/04/16 05:25:05;;;;;;;7.30;2.10;;;;;;;16.42;66.45;98591.41;6155978;23;20151;-86
2023/04/16 05:27:32;;;;;;;4.33;1.20;;;;;;;16.34;67.67;98592.06;6156756;23;20603;-86
2023/04/16 05:29:59;;;;;;;5.97;1.93;;;;;;;16.44;67.12;98582.38;6156593;23;20151;-87
2023/04/16 05:32:26;;;;;;;5.60;1.37;;;;;;;16.53;67.63;98578.97;6156725;23;20154;-87
2023/04/16 05:34:53;;;;;;;4.60;1.37;;;;;;;16.45;69.97;98581.41;6131156;23;20530;-87
2023/04/16 05:37:19;;;;;;;5.37;1.47;;;;;;;16.18;73.54;98586.38;6156810;23;20155;-87
2023/04/16 05:40:17;;;;;;;4.47;1.53;;;;;;;16.26;73.24;98583.09;6156691;23;20575;-86
2023/04/16 05:46:59;;;;;;;;;;;;;;;;;;;;;
2023/04/16 05:57:15;;;;;;;13.43;3.07;;;;;;;16.82;73.57;98578.28;6004769;23;20575;-86
2023/04/16 06:03:52;;;;;;;;;;;;;;;;;;;;;
2023/04/16 06:49:30;;;;;;;;;;;;;;;;;;;;;
2023/04/16 06:56:11;;;;;;;10.43;3.77;;;;;;;18.34;70.33;98584.78;6010228;23;20154;-85
2023/04/16 07:06:14;;;;;;;10.63;3.50;;;;;;;18.65;69.72;98588.91;6009807;23;20166;-85
2023/04/16 07:16:36;;;;;;;13.20;3.60;;;;;;;18.84;69.80;98599.44;6038016;23;20224;-86
2023/04/16 07:19:31;;;;;;;;;;;;;;;;;;;;;
2023/04/16 07:23:00;;;;;;;9.80;3.23;;;;;;;19.61;69.88;98589.28;6125902;23;20238;-85
2023/04/16 07:26:23;;;;;;;11.67;3.27;;;;;;;20.19;68.56;98579.03;6010872;23;20285;-86
2023/04/16 07:57:42;;;;;;;7.10;2.60;;;;;;;23.03;56.31;98552.03;6111635;23;20552;-88
2023/04/16 08:04:18;;;;;;;;;;;;;;;;;;;;;
2023/04/16 08:14:45;;;;;;;5.83;1.77;;;;;;;23.61;51.38;98555.09;6047650;23;20176;-88
2023/04/16 08:21:00;;;;;;;8.37;2.43;;;;;;;23.64;50.26;98546.72;6043432;23;20169;-88
2023/04/16 08:31:21;;;;;;;;;;;;;;;;;;;;;
2023/04/16 09:01:52;;;;;;;;;;;;;;;;;;;;;
2023/04/16 09:12:00;;;;;;;10.77;1.80;;;;;;;22.58;48.81;98516.09;6155348;23;20159;-89
2023/04/16 09:15:31;;;;;;;;;;;;;;;;;;;;;
2023/04/16 09:18:46;;;;;;;8.57;1.80;;;;;;;22.60;46.50;98511.41;6132319;23;20242;-88
2023/04/16 09:25:35;;;;;;;;;;;;;;;;;;;;;
2023/04/16 09:28:43;;;;;;;;;;;;;;;;;;;;;
2023/04/16 09:35:31;;;;;;;;;;;;;;;;;;;;;
2023/04/16 09:45:50;;;;;;;;;;;;;;;;;;;;;
2023/04/16 09:55:44;;;;;;;8.40;3.10;;;;;;;22.31;55.27;98507.63;6060229;23;20638;-89
2023/04/16 10:02:40;;;;;;;;;;;;;;;;;;;;;
2023/04/16 10:13:32;;;;;;;;;;;;;;;;;;;;;
2023/04/16 10:44:53;;;;;;;8.70;3.17;;;;;;;20.51;60.52;98503.06;5943344;24;20160;-88
2023/04/16 10:51:31;;;;;;;11.63;3.30;;;;;;;20.15;57.98;98487.16;5845198;24;20535;-88
2023/04/16 11:41:48;;;;;;;;;;;;;;;;;;;;;
2023/04/16 11:51:40;;;;;;;8.77;1.80;;;;;;;22.53;49.43;98438.31;6051885;23;20528;-89
2023/04/16 11:55:05;;;;;;;;;;;;;;;;;;;;;
2023/04/16 11:58:20;;;;;;;6.97;1.73;;;;;;;22.16;51.46;98435.41;6126087;23;20568;-89
2023/04/16 12:01:56;;;;;;;7.73;2.87;;;;;;;21.91;52.37;98431.09;6109873;23;20639;-89
2023/04/16 13:37:19;;;;;;;;;;;;;;;;;;;;;
2023/04/16 14:14:45;;;;;;;10.23;2.10;;;;;;;24.75;42.46;98308.38;6060785;23;20180;-92
2023/04/16 16:27:57;;;;;;;;;;;;;;;;;;;;;
2023/04/16 16:31:14;;;;;;;;;;;;;;;;;;;;;
2023/04/16 16:48:11;;;;;;;9.97;2.40;;;;;;;19.99;57.19;98350.56;6059872;23;20283;-90
2023/04/16 16:50:37;;;;;;;10.13;3.00;;;;;;;19.59;58.64;98361.81;6063864;23;20240;-92
2023/04/16 16:53:04;;;;;;;5.87;1.97;;;;;;;19.06;60.53;98361.84;6152025;23;20171;-92
2023/04/16 16:55:30;;;;;;;8.03;1.83;;;;;;;19.06;60.46;98367.16;6153829;23;20151;-93
2023/04/16 16:57:57;;;;;;;9.27;2.27;;;;;;;19.22;60.30;98374.44;6156080;23;20552;-96
2023/04/16 17:00:23;;;;;;;6.47;1.97;;;;;;;19.21;60.58;98376.25;6155734;23;20158;-91
2023/04/16 17:02:50;;;;;;;4.60;2.07;;;;;;;19.19;61.01;98385.34;6156511;23;20174;-93
2023/04/16 17:05:18;;;;;;;8.77;2.33;;;;;;;18.68;63.13;98386.03;6129691;23;20255;-91
2023/04/16 17:07:44;;;;;;;7.43;1.83;;;;;;;18.50;64.16;98390.47;6129243;23;20170;-92
2023/04/16 17:10:12;;;;;;;4.70;1.90;;;;;;;18.75;63.11;98387.94;6129590;23;20190;-91
2023/04/16 17:12:38;;;;;;;8.40;2.70;;;;;;;18.69;63.35;98388.53;6129598;23;20540;-91
2023/04/16 17:15:05;;;;;;;7.53;2.17;;;;;;;18.49;64.33;98386.13;6154638;23;20226;-92
2023/04/16 17:17:32;;;;;;;11.93;2.30;;;;;;;18.62;63.66;98392.78;6153951;23;20630;-91
2023/04/16 17:20:00;;;;;;;5.47;2.07;;;;;;;18.37;65.13;98404.03;6155087;23;20170;-91
2023/04/16 17:22:27;;;;;;;7.47;2.13;;;;;;;18.33;65.38;98400.00;6155008;23;20147;-93
2023/04/16 17:24:53;;;;;;;6.47;2.80;;;;;;;18.18;66.27;98396.19;6130976;23;20171;-92
2023/04/16 17:27:19;;;;;;;7.90;2.10;;;;;;;17.87;67.55;98394.75;6156724;23;20230;-92
2023/04/16 17:29:45;;;;;;;4.10;2.07;;;;;;;18.23;66.28;98391.28;6156187;23;20257;-91
2023/04/16 17:32:10;;;;;;;10.03;2.87;;;;;;;18.36;65.52;98397.91;6131256;23;20194;-92
2023/04/16 17:34:37;;;;;;;8.97;3.40;;;;;;;18.26;65.94;98390.97;6156737;23;20238;-91
2023/04/16 17:37:04;;;;;;;9.60;2.23;;;;;;;18.26;65.93;98390.97;6130553;23;20233;-92
2023/04/16 17:39:30;;;;;;;10.40;2.63;;;;;;;18.24;66.18;98399.06;6131180;23;20220;-92
2023/04/16 17:42:00;;;;;;;12.83;2.67;;;;;;;18.23;66.52;98399.22;6156585;23;20158;-92
2023/04/16 17:44:26;;;;;;;8.00;2.30;;;;;;;18.19;66.53;98395.19;6156109;23;20578;-92
2023/04/16 17:46:52;;;;;;;14.77;3.40;;;;;;;18.07;67.36;98397.19;6156647;23;20151;-91
2023/04/16 17:49:19;;;;;;;8.80;3.50;;;;;;;18.09;67.67;98410.31;6148409;23;20644;-92
2023/04/16 17:51:46;;;;;;;8.40;3.27;;;;;;;18.29;66.89;98402.13;6101406;23;20168;-94
2023/04/16 17:54:13;;;;;;;7.50;2.73;;;;;;;18.23;67.06;98407.19;6101949;23;20243;-94
2023/04/16 17:56:40;;;;;;;7.73;3.27;;;;;;;18.08;67.81;98403.34;6127484;23;20163;-91
2023/04/16 17:59:07;;;;;;;10.87;3.80;;;;;;;17.94;68.65;98417.06;6126962;23;20515;-91
2023/04/16 18:01:33;;;;;;;12.20;3.30;;;;;;;17.90;68.95;98410.38;6101734;23;20159;-91
2023/04/16 18:04:00;;;;;;;7.50;2.63;;;;;;;17.83;69.25;98415.41;6101523;23;20302;-91
2023/04/16 18:06:27;;;;;;;8.77;2.83;;;;;;;17.65;70.35;98423.28;6126494;23;20571;-91
2023/04/16 18:08:53;;;;;;;11.27;3.43;;;;;;;17.30;72.10;98433.56;6126857;23;20187;-90
2023/04/16 18:11:20;;;;;;;7.77;2.57;;;;;;;17.49;71.50;98433.56;6126818;23;20151;-90
2023/04/16 18:13:47;;;;;;;10.63;4.57;;;;;;;17.37;71.81;98434.72;6100564;23;20257;-90
2023/04/16 18:16:15;;;;;;;9.87;2.70;;;;;;;17.50;71.42;98445.84;6101689;23;20178;-90
2023/04/16 18:18:43;;;;;;;9.97;2.83;;;;;;;17.50;71.20;98440.56;6099076;23;20240;-91
2023/04/16 18:21:10;;;;;;;5.67;2.67;;;;;;;17.38;71.75;98444.31;6096059;23;20168;-90
2023/04/16 18:23:36;;;;;;;6.53;2.80;;;;;;;17.34;71.98;98436.78;6100031;23;20601;-91
2023/04/16 18:26:02;;;;;;;12.07;4.13;;;;;;;17.28;72.76;98440.81;6071218;23;20580;-91
2023/04/16 18:28:28;;;;;;;9.67;3.90;;;;;;;17.49;71.58;98441.53;6098255;23;20227;-91
2023/04/16 18:30:54;;;;;;;12.17;4.03;;;;;;;17.34;72.24;98453.53;6099330;23;20163;-90
2023/04/16 18:33:19;;;;;;;11.37;3.47;;;;;;;17.06;73.76;98462.25;6123851;23;20152;-90
2023/04/16 18:35:45;;;;;;;9.77;3.90;;;;;;;17.13;74.12;98466.91;6126034;23;20153;-90
2023/04/16 18:38:12;;;;;;;6.93;3.73;;;;;;;17.27;73.13;98459.53;6126399;23;20149;-91
2023/04/16 18:40:38;;;;;;;9.97;3.60;;;;;;;17.10;73.46;98455.72;6100487;23;20211;-91
2023/04/16 18:43:06;;;;;;;10.47;5.00;;;;;;;17.04;74.23;98462.41;6101026;23;20162;-90
2023/04/16 18:45:31;;;;;;;9.97;4.63;;;;;;;16.83;75.19;98455.53;6122819;23;20149;-90
2023/04/16 18:48:01;;;;;;;12.70;3.53;;;;;;;16.65;76.21;98463.31;6125823;23;20153;-91
2023/04/16 18:50:27;;;;;;;11.20;3.83;;;;;;;17.02;74.43;98461.72;6116751;23;20204;-91
2023/04/16 18:52:52;;;;;;;9.90;3.67;;;;;;;16.94;74.63;98458.06;6125119;23;20162;-90
2023/04/16 18:55:18;;;;;;;12.47;4.03;;;;;;;16.91;75.12;98463.63;6126136;23;20234;-90
2023/04/16 18:57:43;;;;;;;8.67;3.23;;;;;;;16.86;75.00;98458.75;6124995;23;20546;-90
2023/04/16 19:00:11;;;;;;;10.80;2.93;;;;;;;16.87;75.16;98462.25;6124381;23;20238;-90
2023/04/16 19:02:38;;;;;;;7.13;2.30;;;;;;;17.09;73.86;98456.69;6124592;23;20156;-90
2023/04/16 19:05:03;;;;;;;5.93;2.90;;;;;;;17.03;74.10;98467.84;6125143;23;20152;-91
2023/04/16 19:07:29;;;;;;;8.83;3.63;;;;;;;17.13;73.45;98458.97;6124309;23;20178;-90
2023/04/16 19:09:55;;;;;;;10.27;3.57;;;;;;;16.95;74.11;98465.06;6121399;23;20183;-91
2023/04/16 19:12:20;;;;;;;7.13;3.07;;;;;;;17.03;73.95;98462.56;6123566;23;20592;-91
2023/04/16 19:14:46;;;;;;;5.40;2.77;;;;;;;17.13;73.58;98460.75;6125133;23;20148;-91
2023/04/16 19:17:11;;;;;;;10.50;3.10;;;;;;;16.95;74.19;98470.34;6125672;23;20163;-91
2023/04/16 19:19:37;;;;;;;8.87;3.73;;;;;;;16.95;74.32;98467.69;6125665;23;20152;-90
2023/04/16 19:22:02;;;;;;;8.40;3.00;;;;;;;16.40;77.08;98469.84;6125282;23;20186;-91
2023/04/16 19:24:27;;;;;;;6.00;2.90;;;;;;;16.43;77.48;98459.00;6125532;23;20234;-91
2023/04/16 19:26:53;;;;;;;9.17;3.70;;;;;;;16.49;77.42;98461.13;6125745;23;20152;-90
2023/04/16 19:29:18;;;;;;;7.20;3.00;;;;;;;16.46;76.85;98457.91;6125118;23;20682;-90
2023/04/16 19:31:45;;;;;;;7.67;2.83;;;;;;;16.21;78.57;98456.56;6125594;23;20242;-90
2023/04/16 19:34:12;;;;;;;7.93;3.30;;;;;;;16.28;78.61;98460.34;6124506;23;20469;-91
2023/04/16 19:36:38;;;;;;;14.63;8.53;;;;;;;16.65;77.13;98446.59;6123798;23;20235;-91
2023/04/16 19:39:04;;;;;;;43.10;21.47;;;;;;;16.66;76.54;98453.56;6125466;23;20185;-90
2023/04/16 19:41:29;;;;;;;21.47;9.07;;;;;;;16.46;77.41;98442.88;6125188;23;20198;-90
2023/04/16 19:43:55;;;;;;;12.43;5.70;;;;;;;16.36;78.02;98442.00;6124403;23;20152;-90
2023/04/16 19:46:20;;;;;;;40.03;17.87;;;;;;;16.17;78.81;98443.75;6123907;23;20253;-90
2023/04/16 19:48:46;;;;;;;12.97;5.67;;;;;;;16.31;78.12;98438.09;6124082;23;20214;-91
2023/04/16 19:51:11;;;;;;;11.63;5.03;;;;;;;16.11;78.90;98437.19;6125418;23;20214;-91
2023/04/16 19:53:37;;;;;;;7.27;3.67;;;;;;;16.14;78.80;98428.97;6099899;23;20152;-91
2023/04/16 19:56:02;;;;;;;7.60;3.33;;;;;;;16.37;77.80;98427.81;6125437;23;20548;-91
2023/04/16 19:58:28;;;;;;;6.03;3.73;;;;;;;16.42;77.40;98430.06;6125381;23;20158;-91
2023/04/16 20:00:53;;;;;;;7.63;3.10;;;;;;;16.48;76.90;98434.81;6100521;23;20171;-91
2023/04/16 20:03:19;;;;;;;7.03;3.73;;;;;;;16.63;76.46;98430.00;6125591;23;20160;-91
2023/04/16 20:05:48;;;;;;;13.80;4.87;;;;;;;16.62;75.75;98434.47;6099762;23;20156;-91
2023/04/16 20:08:13;;;;;;;8.23;3.70;;;;;;;16.67;75.60;98434.88;6099380;23;20612;-90
2023/04/16 20:10:39;;;;;;;12.33;4.03;;;;;;;16.54;75.96;98431.66;6099954;23;20274;-91
2023/04/16 20:13:08;;;;;;;9.90;3.47;;;;;;;16.24;76.88;98435.16;6125478;23;20568;-91
2023/04/16 20:15:34;;;;;;;12.40;3.33;;;;;;;16.21;77.39;98434.56;6125028;23;20151;-91
2023/04/16 20:18:00;;;;;;;13.73;3.73;;;;;;;16.44;76.36;98428.09;6125211;23;20582;-91
2023/04/16 20:20:26;;;;;;;9.83;3.87;;;;;;;16.67;75.38;98434.03;6099446;23;20250;-90
2023/04/16 20:22:51;;;;;;;254.57;97.00;;;;;;;16.62;75.20;98433.63;6098837;23;20159;-91
2023/04/16 20:25:20;;;;;;;35.33;14.20;;;;;;;16.43;75.77;98432.56;6100717;23;20238;-91
2023/04/16 20:27:46;;;;;;;10.20;4.07;;;;;;;16.45;76.03;98432.44;6125598;23;20179;-92
2023/04/16 20:30:12;;;;;;;8.17;2.70;;;;;;;16.49;75.41;98436.47;6125350;23;20148;-91
2023/04/16 20:32:37;;;;;;;7.00;3.50;;;;;;;16.27;76.06;98432.22;6125526;23;20159;-90
2023/04/16 20:35:08;;;;;;;5.83;2.40;;;;;;;15.99;77.47;98438.22;6125705;23;20152;-90
2023/04/16 20:37:36;;;;;;;6.70;2.40;;;;;;;15.73;79.09;98437.78;6125339;23;20220;-90
2023/04/16 20:40:04;;;;;;;5.07;2.40;;;;;;;15.69;79.42;98430.25;6100093;23;20644;-92
2023/04/16 20:42:31;;;;;;;7.57;2.73;;;;;;;15.62;79.94;98429.94;6125958;23;20155;-91
2023/04/16 20:44:56;;;;;;;6.03;2.37;;;;;;;15.48;80.62;98432.06;6100200;23;20241;-92
2023/04/16 20:47:21;;;;;;;8.37;3.03;;;;;;;15.46;80.71;98429.53;6100782;23;20635;-91
2023/04/16 20:49:47;;;;;;;4.67;2.87;;;;;;;15.54;80.54;98427.09;6126196;23;20662;-92
2023/04/16 20:52:13;;;;;;;5.57;2.50;;;;;;;15.53;80.04;98437.78;6100424;23;20496;-91
2023/04/16 20:54:39;;;;;;;9.43;3.00;;;;;;;15.54;80.24;98439.47;6101091;23;20163;-91
2023/04/16 20:57:04;;;;;;;7.63;2.57;;;;;;;15.46;80.86;98434.00;6128454;23;20211;-91
2023/04/16 20:59:30;;;;;;;6.63;2.43;;;;;;;15.62;79.92;98431.72;6102514;23;20152;-91
2023/04/16 21:01:56;;;;;;;5.47;2.27;;;;;;;15.67;79.13;98427.72;6128516;23;20568;-91
2023/04/16 21:04:21;;;;;;;6.47;3.00;;;;;;;15.52;79.92;98434.31;6102422;23;20166;-91
2023/04/16 21:06:47;;;;;;;8.23;3.53;;;;;;;15.67;79.13;98440.13;6102322;23;20166;-90
2023/04/16 21:09:16;;;;;;;7.10;3.27;;;;;;;15.52;79.86;98442.25;6102377;23;20182;-90
2023/04/16 21:11:42;;;;;;;6.33;2.27;;;;;;;15.72;78.83;98430.81;6128188;23;20202;-91
2023/04/16 21:14:07;;;;;;;8.27;2.70;;;;;;;15.67;78.99;98442.78;6102448;23;20250;-91
2023/04/16 21:16:33;;;;;;;7.83;3.07;;;;;;;15.85;78.60;98449.16;6127961;23;20148;-91
2023/04/16 21:18:58;;;;;;;16.00;6.93;;;;;;;15.69;78.74;98444.31;6102454;23;20219;-90
2023/04/16 21:21:25;;;;;;;19.87;7.10;;;;;;;15.68;79.18;98447.06;6102339;23;20163;-91
2023/04/16 21:23:50;;;;;;;23.90;7.47;;;;;;;15.57;79.53;98442.69;6127880;23;20535;-91
2023/04/16 21:26:18;;;;;;;49.33;13.20;;;;;;;15.82;78.51;98444.94;6102272;23;20174;-91
2023/04/16 21:28:44;;;;;;;13.00;5.57;;;;;;;15.85;78.15;98442.03;6102204;23;20180;-91